createdAt,value
2018-04-13T00:01:17.034Z,43.40
2018-04-13T00:03:44.510Z,49.63
2018-04-13T00:06:12.089Z,47.43
2018-04-13T00:08:39.551Z,44.20
2018-04-13T00:11:07.152Z,44.60
2018-04-13T00:13:34.611Z,50.33
2018-04-13T00:16:02.079Z,48.07
2018-04-13T00:18:29.565Z,44.10
2018-04-13T00:20:57.027Z,58.77
2018-04-13T00:23:24.582Z,48.73
2018-04-13T00:25:53.552Z,45.00
2018-04-13T00:28:21.027Z,43.10
2018-04-13T00:30:48.487Z,46.70
2018-04-13T00:33:16.015Z,49.17
2018-04-13T00:35:43.478Z,42.70
2018-04-13T00:38:10.960Z,48.30
2018-04-13T00:40:39.198Z,48.13
2018-04-13T00:43:06.686Z,48.67
2018-04-13T00:45:34.159Z,43.97
2018-04-13T00:48:01.610Z,51.63
2018-04-13T00:50:29.082Z,48.50
2018-04-13T00:53:09.422Z,40.53
2018-04-13T00:55:36.974Z,44.07
2018-04-13T00:58:04.534Z,47.20
2018-04-13T01:00:32.091Z,50.63
2018-04-13T01:02:59.546Z,43.60
2018-04-13T01:05:27.015Z,45.33
2018-04-13T01:07:54.571Z,45.30
2018-04-13T01:10:22.035Z,42.60
2018-04-13T01:12:49.491Z,43.80
2018-04-13T01:15:17.858Z,45.50
2018-04-13T01:17:45.322Z,41.73
2018-04-13T01:20:12.790Z,54.40
2018-04-13T01:22:41.051Z,40.77
2018-04-13T01:25:10.097Z,45.20
2018-04-13T01:27:37.599Z,49.97
2018-04-13T01:30:05.162Z,43.60
2018-04-13T01:32:32.622Z,45.80
2018-04-13T01:35:00.170Z,51.63
2018-04-13T01:37:27.630Z,44.07
2018-04-13T01:39:55.914Z,49.60
2018-04-13T01:42:23.463Z,49.00
2018-04-13T01:44:52.459Z,48.27
2018-04-13T01:47:20.073Z,44.30
2018-04-13T01:49:47.578Z,47.63
2018-04-13T01:52:15.043Z,42.53
2018-04-13T01:54:42.507Z,43.27
2018-04-13T01:57:10.758Z,53.00
2018-04-13T01:59:38.226Z,45.10
2018-04-13T02:02:05.787Z,42.47
2018-04-13T02:04:33.247Z,49.33
2018-04-13T02:07:00.727Z,37.87
2018-04-13T02:09:28.946Z,49.97
2018-04-13T02:11:56.406Z,44.50
2018-04-13T02:14:23.880Z,44.87
2018-04-13T02:16:52.114Z,47.10
2018-04-13T02:19:19.579Z,45.50
2018-04-13T02:21:47.048Z,42.27
2018-04-13T02:24:14.521Z,47.93
2018-04-13T02:26:42.075Z,49.10
2018-04-13T02:29:09.539Z,44.63
2018-04-13T02:31:37.108Z,40.07
2018-04-13T02:34:05.375Z,41.60
2018-04-13T02:36:33.619Z,45.77
2018-04-13T02:39:01.078Z,42.90
2018-04-13T02:41:28.564Z,48.57
2018-04-13T02:43:56.018Z,46.70
2018-04-13T02:46:24.295Z,38.50
2018-04-13T02:48:51.765Z,51.30
2018-04-13T02:51:19.242Z,40.97
2018-04-13T02:53:46.707Z,44.20
2018-04-13T02:56:14.219Z,46.47
2018-04-13T02:58:41.769Z,46.37
2018-04-13T03:01:09.329Z,43.60
2018-04-13T03:03:36.808Z,39.37
2018-04-13T03:06:04.268Z,39.83
2018-04-13T03:08:31.807Z,45.97
2018-04-13T03:10:59.271Z,40.63
2018-04-13T03:13:27.545Z,49.13
2018-04-13T03:15:55.775Z,45.63
2018-04-13T03:18:23.272Z,49.73
2018-04-13T03:20:50.734Z,46.67
2018-04-13T03:23:19.710Z,40.30
2018-04-13T03:25:47.175Z,43.17
2018-04-13T03:28:14.650Z,38.77
2018-04-13T03:30:42.194Z,44.80
2018-04-13T03:33:10.436Z,41.53
2018-04-13T03:35:37.895Z,46.83
2018-04-13T03:38:05.378Z,41.30
2018-04-13T03:40:32.943Z,46.23
2018-04-13T03:43:01.320Z,52.27
2018-04-13T03:45:28.745Z,39.03
2018-04-13T03:47:56.220Z,41.60
2018-04-13T03:50:23.686Z,40.57
2018-04-13T03:52:51.160Z,42.23
2018-04-13T03:55:18.618Z,45.87
2018-04-13T03:57:46.160Z,47.53
2018-04-13T04:00:13.619Z,43.93
2018-04-13T04:02:41.877Z,46.83
2018-04-13T04:05:09.349Z,46.33
2018-04-13T04:07:36.865Z,40.83
2018-04-13T04:10:04.364Z,43.33
2018-04-13T04:12:31.832Z,41.03
2018-04-13T04:14:59.299Z,39.07
2018-04-13T04:17:27.546Z,40.40
2018-04-13T04:20:07.016Z,40.33
2018-04-13T04:22:47.342Z,36.97
2018-04-13T04:28:18.916Z,40.27
2018-04-13T04:30:46.378Z,40.27
2018-04-13T04:33:13.866Z,42.40
2018-04-13T04:35:42.088Z,40.87
2018-04-13T04:38:09.550Z,40.00
2018-04-13T04:40:37.123Z,43.97
2018-04-13T04:43:04.591Z,51.57
2018-04-13T04:45:32.300Z,49.17
2018-04-13T04:47:59.755Z,46.17
2018-04-13T04:50:27.257Z,41.17
2018-04-13T04:52:54.729Z,42.00
2018-04-13T04:55:22.190Z,46.30
2018-04-13T04:57:50.547Z,47.17
2018-04-13T05:00:18.106Z,43.10
2018-04-13T05:02:45.562Z,46.17
2018-04-13T05:05:13.036Z,41.47
2018-04-13T05:07:41.268Z,40.90
2018-04-13T05:10:08.742Z,49.10
2018-04-13T05:12:36.213Z,45.67
2018-04-13T05:15:03.695Z,46.37
2018-04-13T05:17:31.911Z,44.53
2018-04-13T05:19:59.390Z,42.63
2018-04-13T05:22:26.858Z,46.70
2018-04-13T05:24:54.322Z,47.97
2018-04-13T05:27:21.798Z,37.67
2018-04-13T05:29:50.161Z,45.80
2018-04-13T05:32:17.621Z,40.40
2018-04-13T05:34:45.082Z,37.77
2018-04-13T05:37:13.334Z,46.43
2018-04-13T05:39:40.794Z,48.40
2018-04-13T05:42:08.326Z,42.37
2018-04-13T05:44:35.815Z,43.63
2018-04-13T05:47:04.051Z,39.63
2018-04-13T05:49:31.507Z,42.70
2018-04-13T05:51:58.984Z,43.60
2018-04-13T05:54:26.450Z,41.10
2018-04-13T05:56:53.927Z,37.17
2018-04-13T05:59:22.245Z,42.20
2018-04-13T06:01:49.759Z,38.73
2018-04-13T06:04:17.214Z,36.33
2018-04-13T06:06:44.678Z,39.00
2018-04-13T06:09:12.903Z,38.23
2018-04-13T06:11:40.397Z,42.47
2018-04-13T06:14:07.863Z,38.63
2018-04-13T06:16:36.127Z,36.90
2018-04-13T06:19:03.638Z,39.73
2018-04-13T06:21:31.135Z,43.30
2018-04-13T06:23:58.601Z,36.83
2018-04-13T06:26:26.149Z,37.17
2018-04-13T06:28:53.615Z,36.73
2018-04-13T06:31:21.087Z,35.60
2018-04-13T06:33:49.323Z,43.53
2018-04-13T06:36:16.794Z,41.33
2018-04-13T06:38:45.074Z,33.17
2018-04-13T06:41:12.614Z,40.77
2018-04-13T06:43:40.093Z,38.73
2018-04-13T06:46:07.538Z,30.73
2018-04-13T06:48:35.099Z,38.10
2018-04-13T06:51:02.566Z,31.00
2018-04-13T06:53:30.114Z,36.83
2018-04-13T06:55:57.583Z,35.47
2018-04-13T06:58:25.850Z,33.63
2018-04-13T07:00:53.318Z,33.03
2018-04-13T07:03:20.783Z,39.97
2018-04-13T07:05:49.014Z,39.07
2018-04-13T07:08:16.543Z,27.33
2018-04-13T07:10:44.770Z,33.07
2018-04-13T07:13:12.242Z,33.87
2018-04-13T07:15:39.701Z,39.80
2018-04-13T07:18:07.931Z,34.40
2018-04-13T07:20:35.422Z,39.07
2018-04-13T07:23:02.899Z,30.40
2018-04-13T07:25:31.148Z,35.47
2018-04-13T07:27:58.627Z,39.37
2018-04-13T07:30:26.855Z,36.87
2018-04-13T07:32:54.326Z,44.83
2018-04-13T07:35:21.895Z,43.27
2018-04-13T07:37:49.452Z,42.60
2018-04-13T07:40:16.911Z,46.37
2018-04-13T07:42:44.462Z,29.23
2018-04-13T07:45:11.927Z,37.57
2018-04-13T07:47:40.158Z,44.57
2018-04-13T07:50:07.624Z,38.70
2018-04-13T07:52:35.117Z,42.17
2018-04-13T07:55:02.672Z,41.70
2018-04-13T07:57:30.235Z,31.67
2018-04-13T07:59:57.706Z,38.43
2018-04-13T08:02:25.969Z,45.10
2018-04-13T08:04:53.519Z,36.80
2018-04-13T08:07:21.079Z,38.20
2018-04-13T08:09:48.634Z,37.93
2018-04-13T08:12:16.256Z,46.33
2018-04-13T08:14:43.716Z,48.73
2018-04-13T08:17:11.214Z,40.40
2018-04-13T08:19:39.511Z,42.13
2018-04-13T08:22:07.739Z,52.53
2018-04-13T08:24:35.226Z,44.57
2018-04-13T08:27:02.778Z,47.57
2018-04-13T08:29:31.756Z,44.13
2018-04-13T08:31:59.223Z,47.27
2018-04-13T08:34:26.691Z,38.53
2018-04-13T08:36:54.266Z,49.70
2018-04-13T08:39:21.775Z,44.13
2018-04-13T08:41:49.265Z,50.00
2018-04-13T08:44:16.818Z,49.50
2018-04-13T08:46:45.048Z,42.40
2018-04-13T08:49:12.665Z,51.13
2018-04-13T08:51:40.014Z,43.83
2018-04-13T08:54:08.292Z,45.37
2018-04-13T08:56:35.795Z,48.53
2018-04-13T08:59:03.263Z,49.83
2018-04-13T09:01:30.764Z,45.97
2018-04-13T09:03:58.315Z,39.93
2018-04-13T09:06:25.879Z,39.07
2018-04-13T09:08:53.278Z,43.27
2018-04-13T09:11:20.785Z,47.47
2018-04-13T09:13:48.355Z,48.80
2018-04-13T09:16:15.827Z,42.87
2018-04-13T09:18:44.055Z,43.07
2018-04-13T09:21:11.526Z,40.03
2018-04-13T09:23:39.011Z,39.03
2018-04-13T09:26:07.251Z,44.80
2018-04-13T09:28:34.710Z,37.97
2018-04-13T09:31:02.206Z,37.50
2018-04-13T09:33:30.435Z,42.60
2018-04-13T09:35:58.046Z,34.03
2018-04-13T09:38:25.592Z,38.27
2018-04-13T09:40:53.866Z,31.17
2018-04-13T09:43:22.135Z,32.00
2018-04-13T09:45:49.683Z,34.07
2018-04-13T09:48:17.152Z,36.43
2018-04-13T09:50:44.631Z,30.90
2018-04-13T09:53:12.091Z,34.87
2018-04-13T09:55:39.612Z,40.40
2018-04-13T09:58:07.079Z,36.10
2018-04-13T10:00:35.306Z,28.37
2018-04-13T10:06:02.606Z,34.40
2018-04-13T10:08:30.098Z,29.17
2018-04-13T10:10:58.350Z,37.00
2018-04-13T10:13:25.829Z,36.17
2018-04-13T10:15:54.067Z,31.97
2018-04-13T10:18:21.526Z,33.37
2018-04-13T10:20:49.082Z,38.73
2018-04-13T10:23:16.546Z,38.53
2018-04-13T10:25:44.047Z,33.70
2018-04-13T10:28:11.564Z,39.73
2018-04-13T10:30:39.051Z,41.97
2018-04-13T10:33:07.356Z,40.00
2018-04-13T10:35:34.812Z,37.77
2018-04-13T10:38:02.306Z,40.90
2018-04-13T10:40:29.847Z,44.03
2018-04-13T10:42:57.326Z,42.30
2018-04-13T10:45:24.883Z,39.03
2018-04-13T10:47:52.359Z,42.53
2018-04-13T10:50:20.578Z,40.53
2018-04-13T10:52:48.083Z,45.60
2018-04-13T10:55:15.551Z,50.50
2018-04-13T10:57:43.791Z,47.37
2018-04-13T11:00:11.267Z,44.10
2018-04-13T11:02:38.738Z,50.33
2018-04-13T11:05:06.979Z,50.00
2018-04-13T11:07:34.455Z,49.73
2018-04-13T11:10:01.914Z,44.30
2018-04-13T11:12:29.383Z,39.70
2018-04-13T11:14:57.638Z,44.17
2018-04-13T11:17:25.137Z,40.77
2018-04-13T11:19:53.349Z,45.13
2018-04-13T11:22:20.821Z,40.97
2018-04-13T11:24:48.304Z,36.73
2018-04-13T11:27:16.566Z,43.27
2018-04-13T11:29:44.027Z,43.80
2018-04-13T11:32:11.494Z,43.37
2018-04-13T11:34:39.752Z,40.50
2018-04-13T11:37:07.304Z,41.57
2018-04-13T11:39:34.763Z,40.97
2018-04-13T11:42:02.323Z,37.60
2018-04-13T11:44:30.599Z,41.20
2018-04-13T11:46:58.062Z,28.07
2018-04-13T11:49:25.522Z,33.67
2018-04-13T11:51:53.102Z,25.50
2018-04-13T11:54:20.584Z,26.90
2018-04-13T11:56:48.145Z,28.10
2018-04-13T11:59:15.638Z,23.37
2018-04-13T12:01:43.109Z,28.77
2018-04-13T12:04:10.574Z,21.67
2018-04-13T12:06:38.816Z,22.33
2018-04-13T12:09:06.331Z,20.83
2018-04-13T12:11:33.797Z,18.70
2018-04-13T12:14:01.265Z,28.23
2018-04-13T12:16:28.727Z,23.97
2018-04-13T12:18:56.195Z,22.87
2018-04-13T12:21:23.655Z,24.03
2018-04-13T12:23:51.135Z,21.90
2018-04-13T12:26:18.741Z,21.00
2018-04-13T12:28:46.211Z,22.83
2018-04-13T12:31:13.719Z,22.87
2018-04-13T12:33:41.963Z,24.13
2018-04-13T12:36:09.423Z,17.20
2018-04-13T12:38:36.917Z,18.20
2018-04-13T12:41:05.143Z,18.70
2018-04-13T12:43:32.727Z,16.40
2018-04-13T12:46:00.196Z,16.93
2018-04-13T12:48:27.752Z,22.27
2018-04-13T12:50:55.215Z,20.77
2018-04-13T12:53:23.532Z,17.77
2018-04-13T12:55:51.075Z,15.60
2018-04-13T12:58:18.599Z,24.20
2018-04-13T13:00:46.098Z,17.40
2018-04-13T13:03:13.615Z,13.50
2018-04-13T13:05:41.075Z,19.23
2018-04-13T13:08:08.594Z,23.00
2018-04-13T13:10:36.074Z,17.87
2018-04-13T13:13:03.539Z,32.23
2018-04-13T13:15:31.095Z,17.57
2018-04-13T13:17:58.571Z,14.37
2018-04-13T13:20:26.807Z,33.67
2018-04-13T13:22:54.262Z,14.47
2018-04-13T13:25:21.731Z,12.10
2018-04-13T13:27:49.270Z,23.60
2018-04-13T13:30:16.759Z,23.10
2018-04-13T13:32:44.222Z,15.20
2018-04-13T13:35:11.683Z,18.20
2018-04-13T13:37:39.236Z,14.97
2018-04-13T13:40:06.705Z,21.80
2018-04-13T13:42:34.271Z,17.20
2018-04-13T13:45:02.584Z,14.27
2018-04-13T13:47:30.286Z,17.50
2018-04-13T13:49:59.274Z,14.67
2018-04-13T13:52:26.780Z,17.83
2018-04-13T13:54:54.632Z,15.67
2018-04-13T13:57:22.879Z,22.23
2018-04-13T13:59:50.443Z,13.03
2018-04-13T14:02:17.898Z,14.67
2018-04-13T14:04:45.358Z,17.63
2018-04-13T14:07:12.911Z,13.80
2018-04-13T14:09:40.472Z,14.00
2018-04-13T14:12:08.081Z,12.47
2018-04-13T14:14:35.548Z,19.77
2018-04-13T14:17:03.014Z,11.40
2018-04-13T14:19:30.481Z,15.77
2018-04-13T14:21:57.932Z,18.07
2018-04-13T14:24:25.398Z,15.83
2018-04-13T14:26:52.855Z,27.70
2018-04-13T14:29:20.310Z,16.43
2018-04-13T14:31:47.787Z,13.73
2018-04-13T14:34:15.243Z,19.10
2018-04-13T14:36:42.707Z,12.70
2018-04-13T14:39:10.926Z,14.20
2018-04-13T14:41:38.394Z,17.40
2018-04-13T14:44:05.864Z,15.10
2018-04-13T14:46:33.336Z,15.50
2018-04-13T14:49:00.973Z,11.70
2018-04-13T14:51:29.766Z,15.00
2018-04-13T14:53:57.226Z,11.43
2018-04-13T14:56:24.862Z,9.80
2018-04-13T14:58:52.367Z,12.23
2018-04-13T15:01:19.906Z,21.90
2018-04-13T15:03:47.479Z,11.80
2018-04-13T15:06:14.945Z,13.90
2018-04-13T15:08:42.478Z,17.77
2018-04-13T15:11:10.059Z,12.10
2018-04-13T15:13:37.522Z,18.10
2018-04-13T15:16:05.062Z,12.33
2018-04-13T15:18:32.554Z,8.70
2018-04-13T15:20:59.994Z,10.90
2018-04-13T15:23:28.219Z,11.93
2018-04-13T15:25:55.675Z,9.37
2018-04-13T15:28:23.202Z,14.77
2018-04-13T15:30:50.739Z,8.93
2018-04-13T15:33:18.208Z,12.00
2018-04-13T15:35:46.451Z,8.40
2018-04-13T15:38:14.049Z,6.73
2018-04-13T15:40:42.286Z,3.97
2018-04-13T15:43:09.748Z,3.63
2018-04-13T15:45:37.306Z,5.10
2018-04-13T15:48:04.855Z,7.63
2018-04-13T15:50:32.690Z,13.10
2018-04-13T15:53:00.524Z,8.20
2018-04-13T15:55:28.829Z,7.03
2018-04-13T15:57:56.323Z,8.27
2018-04-13T16:00:23.784Z,8.90
2018-04-13T16:02:51.243Z,3.63
2018-04-13T16:05:18.691Z,8.80
2018-04-13T16:07:46.151Z,5.63
2018-04-13T16:10:13.607Z,8.73
2018-04-13T16:12:41.149Z,5.27
2018-04-13T16:15:08.603Z,7.77
2018-04-13T16:17:36.090Z,9.43
2018-04-13T16:20:05.071Z,8.10
2018-04-13T16:22:32.540Z,5.13
2018-04-13T16:25:00.803Z,6.20
2018-04-13T16:27:28.264Z,10.13
2018-04-13T16:29:57.255Z,10.57
2018-04-13T16:32:24.725Z,10.40
2018-04-13T16:34:52.187Z,12.00
2018-04-13T16:37:19.659Z,21.97
2018-04-13T16:39:47.885Z,11.40
2018-04-13T16:42:15.359Z,11.40
2018-04-13T16:44:42.915Z,10.60
2018-04-13T16:47:10.371Z,9.37
2018-04-13T16:49:37.837Z,8.10
2018-04-13T16:52:06.106Z,16.03
2018-04-13T16:54:33.563Z,14.93
2018-04-13T16:57:01.820Z,8.93
2018-04-13T16:59:29.276Z,12.27
2018-04-13T17:01:56.747Z,12.53
2018-04-13T17:04:24.311Z,20.27
2018-04-13T17:06:52.544Z,13.77
2018-04-13T17:09:20.017Z,16.30
2018-04-13T17:11:47.558Z,13.70
2018-04-13T17:14:15.057Z,14.27
2018-04-13T17:16:42.570Z,13.97
2018-04-13T17:19:10.035Z,18.20
2018-04-13T17:21:37.553Z,14.97
2018-04-13T17:24:04.989Z,7.73
2018-04-13T17:26:32.442Z,13.73
2018-04-13T17:29:00.007Z,24.30
2018-04-13T17:31:27.467Z,16.80
2018-04-13T17:33:55.010Z,13.90
2018-04-13T17:36:27.163Z,16.57
2018-04-13T17:38:54.623Z,16.33
2018-04-13T17:41:22.091Z,11.80
2018-04-13T17:43:49.567Z,11.33
2018-04-13T17:46:17.790Z,20.43
2018-04-13T17:48:45.282Z,10.87
2018-04-13T17:51:12.751Z,15.93
2018-04-13T17:53:40.298Z,16.77
2018-04-13T17:56:07.847Z,10.80
2018-04-13T17:58:35.314Z,15.57
2018-04-13T18:01:03.535Z,8.73
2018-04-13T18:03:31.002Z,9.87
2018-04-13T18:05:58.459Z,15.80
2018-04-13T18:08:25.947Z,15.53
2018-04-13T18:10:53.431Z,14.93
2018-04-13T18:13:21.669Z,16.70
2018-04-13T18:15:49.133Z,17.83
2018-04-13T18:18:16.593Z,13.50
2018-04-13T18:20:44.060Z,15.30
2018-04-13T18:23:11.519Z,11.90
2018-04-13T18:25:40.508Z,13.37
2018-04-13T18:28:08.064Z,15.87
2018-04-13T18:30:37.041Z,13.10
2018-04-13T18:33:04.630Z,14.83
2018-04-13T18:35:32.100Z,13.17
2018-04-13T18:38:01.059Z,15.00
2018-04-13T18:40:28.532Z,12.80
2018-04-13T18:42:56.090Z,13.03
2018-04-13T18:45:24.327Z,14.23
2018-04-13T18:47:51.802Z,19.73
2018-04-13T18:50:19.268Z,15.53
2018-04-13T18:52:46.713Z,9.87
2018-04-13T18:55:14.183Z,12.00
2018-04-13T18:57:41.739Z,13.50
2018-04-13T19:00:09.216Z,18.37
2018-04-13T19:02:37.443Z,17.03
2018-04-13T19:05:04.918Z,15.13
2018-04-13T19:07:32.374Z,10.90
2018-04-13T19:09:59.844Z,14.03
2018-04-13T19:12:27.298Z,14.33
2018-04-13T19:14:54.777Z,17.03
2018-04-13T19:17:22.260Z,10.30
2018-04-13T19:19:49.771Z,9.77
2018-04-13T19:22:17.223Z,19.40
2018-04-13T19:24:44.703Z,13.03
2018-04-13T19:27:12.243Z,13.53
2018-04-13T19:29:39.815Z,22.70
2018-04-13T19:32:07.301Z,14.97
2018-04-13T19:34:34.820Z,11.43
2018-04-13T19:37:02.300Z,18.00
2018-04-13T19:39:30.550Z,16.13
2018-04-13T19:41:58.020Z,16.40
2018-04-13T19:44:25.526Z,15.23
2018-04-13T19:46:53.007Z,22.20
2018-04-13T19:49:20.471Z,22.20
2018-04-13T19:51:48.038Z,13.60
2018-04-13T19:54:15.497Z,18.10
2018-04-13T19:56:42.975Z,20.83
2018-04-13T19:59:11.207Z,15.83
2018-04-13T20:01:38.691Z,17.93
2018-04-13T20:04:06.155Z,15.63
2018-04-13T20:06:34.411Z,15.77
2018-04-13T20:09:01.966Z,22.57
2018-04-13T20:11:29.543Z,15.50
2018-04-13T20:13:57.810Z,14.37
2018-04-13T20:16:25.286Z,21.40
2018-04-13T20:18:53.551Z,21.60
2018-04-13T20:21:21.027Z,35.63
2018-04-13T20:23:49.256Z,16.60
2018-04-13T20:26:16.733Z,22.33
2018-04-13T20:28:44.200Z,16.73
2018-04-13T20:31:12.464Z,19.20
2018-04-13T20:33:40.722Z,28.03
2018-04-13T20:36:08.207Z,17.47
2018-04-13T20:38:35.676Z,15.97
2018-04-13T20:41:03.931Z,17.00
2018-04-13T20:43:31.391Z,16.67
2018-04-13T20:45:58.875Z,26.77
2018-04-13T20:48:27.109Z,25.43
2018-04-13T20:50:54.591Z,23.23
2018-04-13T20:53:22.819Z,15.23
2018-04-13T20:55:50.311Z,18.70
2018-04-13T20:58:19.303Z,20.50
2018-04-13T21:00:46.818Z,19.67
2018-04-13T21:03:14.307Z,15.57
2018-04-13T21:05:42.593Z,19.87
2018-04-13T21:08:11.566Z,17.80
2018-04-13T21:10:39.047Z,15.10
2018-04-13T21:13:06.531Z,19.97
2018-04-13T21:15:33.994Z,16.67
2018-04-13T21:18:01.505Z,17.77
2018-04-13T21:20:29.062Z,20.37
2018-04-13T21:22:56.618Z,20.20
2018-04-13T21:25:24.083Z,15.43
2018-04-13T21:27:52.344Z,15.97
2018-04-13T21:30:19.919Z,20.10
2018-04-13T21:32:48.915Z,21.93
2018-04-13T21:35:16.832Z,17.30
2018-04-13T21:37:44.311Z,18.30
2018-04-13T21:40:11.766Z,16.07
2018-04-13T21:42:39.250Z,19.50
2018-04-13T21:45:06.815Z,12.67
2018-04-13T21:47:34.286Z,14.27
2018-04-13T21:50:02.519Z,13.73
2018-04-13T21:52:30.095Z,16.13
2018-04-13T21:54:57.666Z,20.47
2018-04-13T21:57:25.214Z,9.07
2018-04-13T21:59:52.773Z,10.47
2018-04-13T22:02:20.334Z,11.23
2018-04-13T22:04:47.978Z,6.73
2018-04-13T22:07:15.510Z,10.10
2018-04-13T22:09:42.979Z,10.07
2018-04-13T22:12:22.260Z,6.17
2018-04-13T22:14:55.064Z,7.90
2018-04-13T22:17:22.518Z,6.07
2018-04-13T22:19:49.993Z,4.63
2018-04-13T22:22:17.450Z,7.10
2018-04-13T22:24:44.927Z,3.90
2018-04-13T22:27:12.383Z,5.10
2018-04-13T22:29:39.838Z,3.13
2018-04-13T22:32:07.312Z,5.63
2018-04-13T22:34:34.814Z,4.80
2018-04-13T22:37:02.251Z,3.90
2018-04-13T22:39:30.487Z,3.03
2018-04-13T22:41:57.942Z,3.90
2018-04-13T22:44:25.412Z,6.47
2018-04-13T22:46:52.883Z,5.60
2018-04-13T22:49:20.350Z,5.33
2018-04-13T22:51:48.616Z,4.30
2018-04-13T22:54:16.082Z,4.73
2018-04-13T22:56:44.344Z,6.13
2018-04-13T22:59:11.820Z,7.50
2018-04-13T23:01:40.047Z,4.93
2018-04-13T23:04:07.531Z,6.70
2018-04-13T23:06:35.750Z,5.30
2018-04-13T23:09:03.220Z,8.17
2018-04-13T23:11:30.680Z,6.10
2018-04-13T23:13:58.175Z,4.90
2018-04-13T23:16:25.623Z,5.30
2018-04-13T23:18:53.110Z,5.57
2018-04-13T23:21:21.338Z,5.60
2018-04-13T23:23:48.800Z,4.50
2018-04-13T23:26:16.282Z,3.77
2018-04-13T23:28:43.736Z,4.80
2018-04-13T23:31:11.296Z,8.30
2018-04-13T23:33:38.753Z,7.10
2018-04-13T23:36:06.212Z,5.90
2018-04-13T23:38:33.674Z,4.07
2018-04-13T23:41:01.139Z,4.83
2018-04-13T23:43:29.388Z,5.37
2018-04-13T23:45:56.861Z,6.10
2018-04-13T23:48:24.422Z,4.10
2018-04-13T23:50:51.883Z,15.07
2018-04-13T23:53:20.200Z,6.83
2018-04-13T23:55:47.672Z,4.30
2018-04-13T23:58:15.170Z,10.10
